Hansen, Nebraska
Current Conditions -  °F | °C
As of 9:53 PM on Wednesday 28 Jan 2015 (Local Time) from KHSI Reporting Station
Broken Clouds Broken Clouds  
Wind Chill: 11°   Ceiling: 10000
Heat Index: 11°   Visibility: 10mi
Dew Point:   Wind: 24mph
Humidity: 49%   Direction: 340°NNW
Pressure: 29.96"   Gusts: 35mph
Location:  40.5551°N, 98.369°W
Report Text: KHSI 290353Z AUTO 34021G30KT 10SM BKN100 11/01 A2996 RMK AO2 PK WND 34035/0338 SLP151 T01110006 $
Loading
Personal Weather Stations






























Interactive Weather Map New forecast layout! Learn more

10-Day Weather Forecast

Advertisements
Track Severe Weather on mobile